sensor_id;sensor_type;location;lat;lon;timestamp;pressure;altitude;pressure_sealevel;temperature;humidity
68329;BME280;55182;56.864;60.554;2023-01-31T00:01:04;76568.84;;;-143.60;80.14
68329;BME280;55182;56.864;60.554;2023-01-31T00:03:30;76566.84;;;-143.60;80.33
68329;BME280;55182;56.864;60.554;2023-01-31T00:05:56;76558.81;;;-143.60;80.08
68329;BME280;55182;56.864;60.554;2023-01-31T00:08:22;76556.81;;;-143.60;79.88
68329;BME280;55182;56.864;60.554;2023-01-31T00:10:47;76554.78;;;-143.60;79.85
68329;BME280;55182;56.864;60.554;2023-01-31T00:13:13;76556.81;;;-143.60;79.74
68329;BME280;55182;56.864;60.554;2023-01-31T00:15:38;76556.81;;;-143.60;79.67
68329;BME280;55182;56.864;60.554;2023-01-31T00:18:04;76550.78;;;-143.60;79.56
68329;BME280;55182;56.864;60.554;2023-01-31T00:20:29;76550.78;;;-143.60;79.68
68329;BME280;55182;56.864;60.554;2023-01-31T00:22:54;76552.78;;;-143.60;79.57
68329;BME280;55182;56.864;60.554;2023-01-31T00:25:20;76552.78;;;-143.60;79.58
68329;BME280;55182;56.864;60.554;2023-01-31T00:27:46;76550.78;;;-143.60;79.71
68329;BME280;55182;56.864;60.554;2023-01-31T00:30:11;76554.78;;;-143.60;79.75
68329;BME280;55182;56.864;60.554;2023-01-31T00:32:37;76552.78;;;-143.60;79.66
68329;BME280;55182;56.864;60.554;2023-01-31T00:35:02;76556.81;;;-143.60;79.65
68329;BME280;55182;56.864;60.554;2023-01-31T00:37:28;76554.78;;;-143.60;79.89
68329;BME280;55182;56.864;60.554;2023-01-31T00:39:54;76556.81;;;-143.60;79.83
68329;BME280;55182;56.864;60.554;2023-01-31T00:42:19;76556.81;;;-143.60;80.01
68329;BME280;55182;56.864;60.554;2023-01-31T00:44:44;76556.81;;;-143.60;79.64
68329;BME280;55182;56.864;60.554;2023-01-31T00:47:10;76556.81;;;-143.60;79.82
68329;BME280;55182;56.864;60.554;2023-01-31T00:49:35;76556.81;;;-143.60;79.60
68329;BME280;55182;56.864;60.554;2023-01-31T00:52:01;76554.78;;;-143.60;79.68
68329;BME280;55182;56.864;60.554;2023-01-31T00:54:27;76548.75;;;-143.60;79.68
68329;BME280;55182;56.864;60.554;2023-01-31T00:56:53;76552.78;;;-143.60;79.58
68329;BME280;55182;56.864;60.554;2023-01-31T00:59:19;76544.75;;;-143.60;79.32
68329;BME280;55182;56.864;60.554;2023-01-31T01:01:44;76540.72;;;-143.60;79.34
68329;BME280;55182;56.864;60.554;2023-01-31T01:04:10;76542.72;;;-143.60;79.05
68329;BME280;55182;56.864;60.554;2023-01-31T01:06:37;76532.69;;;-143.60;78.98
68329;BME280;55182;56.864;60.554;2023-01-31T01:09:03;76532.69;;;-143.60;78.65
68329;BME280;55182;56.864;60.554;2023-01-31T01:11:29;76526.66;;;-143.60;78.82
68329;BME280;55182;56.864;60.554;2023-01-31T01:13:55;76530.69;;;-143.60;78.82
68329;BME280;55182;56.864;60.554;2023-01-31T01:16:25;76524.66;;;-143.60;78.82
68329;BME280;55182;56.864;60.554;2023-01-31T01:18:51;76524.66;;;-143.60;78.56
68329;BME280;55182;56.864;60.554;2023-01-31T01:21:18;76524.66;;;-143.60;78.76
68329;BME280;55182;56.864;60.554;2023-01-31T01:23:44;76524.66;;;-143.60;78.68
68329;BME280;55182;56.864;60.554;2023-01-31T01:26:13;76520.63;;;-143.60;78.58
68329;BME280;55182;56.864;60.554;2023-01-31T01:28:39;76518.63;;;-143.60;78.40
68329;BME280;55182;56.864;60.554;2023-01-31T01:31:05;76526.66;;;-143.60;78.21
68329;BME280;55182;56.864;60.554;2023-01-31T01:33:31;76522.63;;;-143.60;78.22
68329;BME280;55182;56.864;60.554;2023-01-31T01:36:00;76522.63;;;-143.60;78.03
68329;BME280;55182;56.864;60.554;2023-01-31T01:38:26;76520.63;;;-143.60;77.69
68329;BME280;55182;56.864;60.554;2023-01-31T01:40:52;76518.63;;;-143.60;77.90
68329;BME280;55182;56.864;60.554;2023-01-31T01:43:20;76518.63;;;-143.60;77.76
68329;BME280;55182;56.864;60.554;2023-01-31T01:45:46;76508.56;;;-143.60;77.53
68329;BME280;55182;56.864;60.554;2023-01-31T01:48:13;76512.59;;;-143.60;77.37
68329;BME280;55182;56.864;60.554;2023-01-31T01:50:43;76512.59;;;-143.60;77.44
68329;BME280;55182;56.864;60.554;2023-01-31T01:53:42;76512.59;;;-143.60;77.17
68329;BME280;55182;56.864;60.554;2023-01-31T01:56:02;76512.59;;;-143.60;77.14
68329;BME280;55182;56.864;60.554;2023-01-31T01:58:32;76502.53;;;-143.60;77.13
68329;BME280;55182;56.864;60.554;2023-01-31T02:01:02;76504.56;;;-143.60;76.95
68329;BME280;55182;56.864;60.554;2023-01-31T02:03:28;76492.50;;;-143.60;76.82
68329;BME280;55182;56.864;60.554;2023-01-31T02:05:55;76500.53;;;-143.60;76.47
68329;BME280;55182;56.864;60.554;2023-01-31T02:08:23;76496.50;;;-143.60;76.22
68329;BME280;55182;56.864;60.554;2023-01-31T02:13:16;76496.50;;;-143.60;76.17
68329;BME280;55182;56.864;60.554;2023-01-31T02:15:43;76486.47;;;-143.60;76.30
68329;BME280;55182;56.864;60.554;2023-01-31T02:18:09;76484.44;;;-143.60;76.17
68329;BME280;55182;56.864;60.554;2023-01-31T02:20:42;76492.50;;;-143.60;75.62
68329;BME280;55182;56.864;60.554;2023-01-31T02:26:12;76476.41;;;-143.60;75.13
68329;BME280;55182;56.864;60.554;2023-01-31T02:31:24;76472.41;;;-143.60;75.03
68329;BME280;55182;56.864;60.554;2023-01-31T02:44:23;76476.41;;;-143.60;74.59
68329;BME280;55182;56.864;60.554;2023-01-31T02:46:54;76478.44;;;-143.60;74.43
68329;BME280;55182;56.864;60.554;2023-01-31T02:50:04;76490.47;;;-143.60;74.54
68329;BME280;55182;56.864;60.554;2023-01-31T02:52:19;76492.50;;;-143.60;74.83
68329;BME280;55182;56.864;60.554;2023-01-31T02:57:29;76488.47;;;-143.60;74.65
68329;BME280;55182;56.864;60.554;2023-01-31T02:59:55;76488.47;;;-143.60;74.32
68329;BME280;55182;56.864;60.554;2023-01-31T03:02:21;76496.50;;;-143.60;74.30
68329;BME280;55182;56.864;60.554;2023-01-31T03:04:47;76494.50;;;-143.60;74.12
68329;BME280;55182;56.864;60.554;2023-01-31T03:07:14;76496.50;;;-143.60;74.27
68329;BME280;55182;56.864;60.554;2023-01-31T03:09:45;76508.56;;;-143.60;74.12
68329;BME280;55182;56.864;60.554;2023-01-31T03:12:26;76504.56;;;-143.60;74.24
68329;BME280;55182;56.864;60.554;2023-01-31T03:21:12;76514.59;;;-143.60;73.52
68329;BME280;55182;56.864;60.554;2023-01-31T03:23:15;76514.59;;;-143.60;73.08
68329;BME280;55182;56.864;60.554;2023-01-31T03:25:41;76514.59;;;-143.60;73.01
68329;BME280;55182;56.864;60.554;2023-01-31T03:28:10;76516.59;;;-143.60;73.25
68329;BME280;55182;56.864;60.554;2023-01-31T03:33:05;76512.59;;;-143.60;72.54
68329;BME280;55182;56.864;60.554;2023-01-31T03:35:33;76520.63;;;-143.60;72.84
68329;BME280;55182;56.864;60.554;2023-01-31T03:38:03;76524.66;;;-143.60;72.44
68329;BME280;55182;56.864;60.554;2023-01-31T03:40:38;76526.66;;;-143.60;72.09
68329;BME280;55182;56.864;60.554;2023-01-31T03:43:08;76528.66;;;-143.60;71.76
68329;BME280;55182;56.864;60.554;2023-01-31T03:45:40;76532.69;;;-143.60;71.78
68329;BME280;55182;56.864;60.554;2023-01-31T03:48:08;76536.72;;;-143.60;71.92
68329;BME280;55182;56.864;60.554;2023-01-31T03:50:38;76532.69;;;-143.60;71.71
68329;BME280;55182;56.864;60.554;2023-01-31T03:55:56;76536.72;;;-143.60;71.83
68329;BME280;55182;56.864;60.554;2023-01-31T03:58:28;76534.69;;;-143.60;71.47
68329;BME280;55182;56.864;60.554;2023-01-31T04:00:56;76536.72;;;-143.60;71.45
68329;BME280;55182;56.864;60.554;2023-01-31T04:05:49;76544.75;;;-143.60;71.06
68329;BME280;55182;56.864;60.554;2023-01-31T04:08:17;76544.75;;;-143.60;70.67
68329;BME280;55182;56.864;60.554;2023-01-31T04:10:51;76544.75;;;-143.60;70.93
68329;BME280;55182;56.864;60.554;2023-01-31T04:13:17;76552.78;;;-143.60;70.88
68329;BME280;55182;56.864;60.554;2023-01-31T04:15:42;76556.81;;;-143.60;70.72
68329;BME280;55182;56.864;60.554;2023-01-31T04:18:08;76554.78;;;-143.60;70.78
68329;BME280;55182;56.864;60.554;2023-01-31T04:20:33;76568.84;;;-143.60;70.76
68329;BME280;55182;56.864;60.554;2023-01-31T04:22:58;76572.88;;;-143.60;70.59
68329;BME280;55182;56.864;60.554;2023-01-31T04:25:24;76570.88;;;-143.60;70.73
68329;BME280;55182;56.864;60.554;2023-01-31T04:27:50;76584.94;;;-143.60;70.65
68329;BME280;55182;56.864;60.554;2023-01-31T04:30:15;76584.94;;;-143.60;70.98
68329;BME280;55182;56.864;60.554;2023-01-31T04:32:41;76586.94;;;-143.60;70.69
68329;BME280;55182;56.864;60.554;2023-01-31T04:35:06;76588.97;;;-143.60;70.60
68329;BME280;55182;56.864;60.554;2023-01-31T04:37:32;76594.97;;;-143.60;70.90
68329;BME280;55182;56.864;60.554;2023-01-31T04:39:57;76597.00;;;-143.60;71.16
68329;BME280;55182;56.864;60.554;2023-01-31T04:42:23;76592.97;;;-143.60;70.93
68329;BME280;55182;56.864;60.554;2023-01-31T04:44:48;76590.97;;;-143.60;70.93
68329;BME280;55182;56.864;60.554;2023-01-31T04:47:14;76592.97;;;-143.60;70.75
68329;BME280;55182;56.864;60.554;2023-01-31T04:49:40;76588.97;;;-143.60;70.72
68329;BME280;55182;56.864;60.554;2023-01-31T04:52:06;76582.94;;;-143.60;70.56
68329;BME280;55182;56.864;60.554;2023-01-31T04:54:31;76580.91;;;-143.60;70.67
68329;BME280;55182;56.864;60.554;2023-01-31T04:56:57;76572.88;;;-143.60;70.45
68329;BME280;55182;56.864;60.554;2023-01-31T04:59:22;76572.88;;;-143.60;70.57
68329;BME280;55182;56.864;60.554;2023-01-31T05:01:48;76568.84;;;-143.60;70.49
68329;BME280;55182;56.864;60.554;2023-01-31T05:04:13;76566.84;;;-143.60;70.42
68329;BME280;55182;56.864;60.554;2023-01-31T05:06:39;76556.81;;;-143.60;70.19
68329;BME280;55182;56.864;60.554;2023-01-31T05:09:04;76556.81;;;-143.60;69.92
68329;BME280;55182;56.864;60.554;2023-01-31T05:11:30;76550.78;;;-143.60;69.86
68329;BME280;55182;56.864;60.554;2023-01-31T05:13:55;76540.72;;;-143.60;69.78
68329;BME280;55182;56.864;60.554;2023-01-31T05:16:21;76532.69;;;-143.60;69.67
68329;BME280;55182;56.864;60.554;2023-01-31T05:18:46;76530.69;;;-143.60;69.65
68329;BME280;55182;56.864;60.554;2023-01-31T05:21:12;76524.66;;;-143.60;69.62
68329;BME280;55182;56.864;60.554;2023-01-31T05:23:37;76516.59;;;-143.60;69.33
68329;BME280;55182;56.864;60.554;2023-01-31T05:26:03;76508.56;;;-143.60;69.09
68329;BME280;55182;56.864;60.554;2023-01-31T05:28:28;76500.53;;;-143.60;68.67
68329;BME280;55182;56.864;60.554;2023-01-31T05:31:00;76494.50;;;-143.60;68.54
68329;BME280;55182;56.864;60.554;2023-01-31T05:33:25;76488.47;;;-143.60;68.24
68329;BME280;55182;56.864;60.554;2023-01-31T05:35:51;76480.44;;;-143.60;68.26
68329;BME280;55182;56.864;60.554;2023-01-31T05:38:17;76480.44;;;-143.60;68.22
68329;BME280;55182;56.864;60.554;2023-01-31T05:40:42;76476.41;;;-143.60;67.88
68329;BME280;55182;56.864;60.554;2023-01-31T05:43:08;76478.44;;;-143.60;68.14
68329;BME280;55182;56.864;60.554;2023-01-31T05:45:33;76474.41;;;-143.60;67.39
68329;BME280;55182;56.864;60.554;2023-01-31T05:47:59;76476.41;;;-143.60;67.49
68329;BME280;55182;56.864;60.554;2023-01-31T05:50:24;76476.41;;;-143.60;67.33
68329;BME280;55182;56.864;60.554;2023-01-31T05:52:53;76494.50;;;-143.60;67.64
68329;BME280;55182;56.864;60.554;2023-01-31T05:55:19;76496.50;;;-143.60;67.42
68329;BME280;55182;56.864;60.554;2023-01-31T05:57:45;76508.56;;;-143.60;67.46
68329;BME280;55182;56.864;60.554;2023-01-31T06:00:11;76524.66;;;-143.60;67.65
68329;BME280;55182;56.864;60.554;2023-01-31T06:02:37;76528.66;;;-143.60;67.69
68329;BME280;55182;56.864;60.554;2023-01-31T06:05:03;76532.69;;;-143.60;67.78
68329;BME280;55182;56.864;60.554;2023-01-31T06:07:29;76540.72;;;-143.60;67.98
68329;BME280;55182;56.864;60.554;2023-01-31T06:09:55;76544.75;;;-143.60;67.98
68329;BME280;55182;56.864;60.554;2023-01-31T06:12:21;76536.72;;;-143.60;67.89
68329;BME280;55182;56.864;60.554;2023-01-31T06:14:46;76538.72;;;-143.60;67.57
68329;BME280;55182;56.864;60.554;2023-01-31T06:17:11;76534.69;;;-143.60;67.33
68329;BME280;55182;56.864;60.554;2023-01-31T06:19:37;76532.69;;;-143.60;67.64
68329;BME280;55182;56.864;60.554;2023-01-31T06:22:03;76530.69;;;-143.60;67.30
68329;BME280;55182;56.864;60.554;2023-01-31T06:24:29;76514.59;;;-143.60;66.89
68329;BME280;55182;56.864;60.554;2023-01-31T06:26:54;76508.56;;;-143.60;66.45
68329;BME280;55182;56.864;60.554;2023-01-31T06:29:20;76488.47;;;-143.60;66.08
68329;BME280;55182;56.864;60.554;2023-01-31T06:31:45;76482.44;;;-143.60;66.02
68329;BME280;55182;56.864;60.554;2023-01-31T06:34:11;76474.41;;;-143.60;65.13
68329;BME280;55182;56.864;60.554;2023-01-31T06:36:36;76464.34;;;-143.60;65.03
68329;BME280;55182;56.864;60.554;2023-01-31T06:39:02;76452.31;;;-143.60;64.83
68329;BME280;55182;56.864;60.554;2023-01-31T06:41:28;76452.31;;;-143.60;64.41
68329;BME280;55182;56.864;60.554;2023-01-31T06:43:54;76434.22;;;-143.60;64.20
68329;BME280;55182;56.864;60.554;2023-01-31T06:46:20;76418.13;;;-143.60;63.64
68329;BME280;55182;56.864;60.554;2023-01-31T06:48:46;76418.13;;;-143.60;63.36
68329;BME280;55182;56.864;60.554;2023-01-31T06:51:12;76404.06;;;-143.60;63.44
68329;BME280;55182;56.864;60.554;2023-01-31T06:53:38;76396.03;;;-143.60;63.43
68329;BME280;55182;56.864;60.554;2023-01-31T06:56:04;76375.94;;;-143.60;63.20
68329;BME280;55182;56.864;60.554;2023-01-31T06:58:29;76363.88;;;-143.60;63.20
68329;BME280;55182;56.864;60.554;2023-01-31T07:00:55;76359.84;;;-143.60;63.50
68329;BME280;55182;56.864;60.554;2023-01-31T07:03:21;76349.81;;;-143.60;63.42
68329;BME280;55182;56.864;60.554;2023-01-31T07:05:47;76343.78;;;-143.60;62.91
68329;BME280;55182;56.864;60.554;2023-01-31T07:08:12;76325.69;;;-143.60;62.65
68329;BME280;55182;56.864;60.554;2023-01-31T07:10:38;76307.59;;;-143.60;62.25
68329;BME280;55182;56.864;60.554;2023-01-31T07:13:03;76301.59;;;-143.60;61.68
68329;BME280;55182;56.864;60.554;2023-01-31T07:15:29;76291.53;;;-143.60;61.88
68329;BME280;55182;56.864;60.554;2023-01-31T07:17:58;76289.53;;;-143.60;62.24
68329;BME280;55182;56.864;60.554;2023-01-31T07:20:23;76273.44;;;-143.60;62.05
68329;BME280;55182;56.864;60.554;2023-01-31T07:22:53;76257.38;;;-143.60;61.86
68329;BME280;55182;56.864;60.554;2023-01-31T07:25:18;76243.31;;;-143.60;62.07
68329;BME280;55182;56.864;60.554;2023-01-31T07:27:44;76227.22;;;-143.60;61.39
68329;BME280;55182;56.864;60.554;2023-01-31T07:30:09;76207.13;;;-143.60;61.38
68329;BME280;55182;56.864;60.554;2023-01-31T07:32:35;76187.03;;;-143.60;61.95
68329;BME280;55182;56.864;60.554;2023-01-31T07:35:01;76174.97;;;-143.60;61.52
68329;BME280;55182;56.864;60.554;2023-01-31T07:37:27;76162.91;;;-143.60;61.47
68329;BME280;55182;56.864;60.554;2023-01-31T07:39:52;76150.88;;;-143.60;61.16
68329;BME280;55182;56.864;60.554;2023-01-31T07:42:18;76146.84;;;-143.60;61.27
68329;BME280;55182;56.864;60.554;2023-01-31T07:44:44;76140.81;;;-143.60;61.02
68329;BME280;55182;56.864;60.554;2023-01-31T07:47:09;76138.81;;;-143.60;61.38
68329;BME280;55182;56.864;60.554;2023-01-31T07:49:35;76144.84;;;-143.60;61.51
68329;BME280;55182;56.864;60.554;2023-01-31T07:52:00;76130.78;;;-143.60;61.91
68329;BME280;55182;56.864;60.554;2023-01-31T07:54:26;76126.75;;;-143.60;61.96
68329;BME280;55182;56.864;60.554;2023-01-31T07:56:51;76126.75;;;-143.60;62.42
68329;BME280;55182;56.864;60.554;2023-01-31T07:59:17;76122.72;;;-143.60;62.54
68329;BME280;55182;56.864;60.554;2023-01-31T08:01:42;76130.78;;;-143.60;62.57
68329;BME280;55182;56.864;60.554;2023-01-31T08:04:09;76128.75;;;-143.60;63.20
68329;BME280;55182;56.864;60.554;2023-01-31T08:06:35;76126.75;;;-143.60;63.01
68329;BME280;55182;56.864;60.554;2023-01-31T08:09:01;76130.78;;;-143.60;63.52
68329;BME280;55182;56.864;60.554;2023-01-31T08:11:26;76138.81;;;-143.60;63.59
68329;BME280;55182;56.864;60.554;2023-01-31T08:13:52;76130.78;;;-143.60;63.84
68329;BME280;55182;56.864;60.554;2023-01-31T08:16:18;76136.81;;;-143.60;64.02
68329;BME280;55182;56.864;60.554;2023-01-31T08:18:43;76138.81;;;-143.60;64.39
68329;BME280;55182;56.864;60.554;2023-01-31T08:21:09;76138.81;;;-143.60;64.92
68329;BME280;55182;56.864;60.554;2023-01-31T08:23:35;76138.81;;;-143.60;64.86
68329;BME280;55182;56.864;60.554;2023-01-31T08:26:02;76138.81;;;-143.60;65.02
68329;BME280;55182;56.864;60.554;2023-01-31T08:28:28;76132.78;;;-143.60;64.77
68329;BME280;55182;56.864;60.554;2023-01-31T08:30:53;76122.72;;;-143.60;64.52
68329;BME280;55182;56.864;60.554;2023-01-31T08:33:19;76122.72;;;-143.60;64.48
68329;BME280;55182;56.864;60.554;2023-01-31T08:35:45;76110.69;;;-143.60;64.63
68329;BME280;55182;56.864;60.554;2023-01-31T08:38:11;76104.66;;;-143.60;64.26
68329;BME280;55182;56.864;60.554;2023-01-31T08:40:36;76092.59;;;-143.60;64.32
68329;BME280;55182;56.864;60.554;2023-01-31T08:43:02;76090.59;;;-143.60;64.32
68329;BME280;55182;56.864;60.554;2023-01-31T08:45:28;76074.50;;;-143.60;64.48
68329;BME280;55182;56.864;60.554;2023-01-31T08:47:54;76066.47;;;-143.60;64.54
68329;BME280;55182;56.864;60.554;2023-01-31T08:50:21;76054.41;;;-143.60;64.58
68329;BME280;55182;56.864;60.554;2023-01-31T08:52:51;76054.41;;;-143.60;64.65
68329;BME280;55182;56.864;60.554;2023-01-31T08:55:17;76042.34;;;-143.60;64.79
68329;BME280;55182;56.864;60.554;2023-01-31T08:57:43;76038.34;;;-143.60;64.89
68329;BME280;55182;56.864;60.554;2023-01-31T09:00:09;76026.28;;;-143.60;64.33
68329;BME280;55182;56.864;60.554;2023-01-31T09:02:35;76014.22;;;-143.60;64.26
68329;BME280;55182;56.864;60.554;2023-01-31T09:05:00;76006.19;;;-143.60;64.49
68329;BME280;55182;56.864;60.554;2023-01-31T09:07:26;75994.13;;;-143.60;64.50
68329;BME280;55182;56.864;60.554;2023-01-31T09:09:52;76000.16;;;-143.60;64.89
68329;BME280;55182;56.864;60.554;2023-01-31T09:12:18;76002.16;;;-143.60;64.31
68329;BME280;55182;56.864;60.554;2023-01-31T09:14:43;76008.19;;;-143.60;64.86
68329;BME280;55182;56.864;60.554;2023-01-31T09:17:09;76004.19;;;-143.60;65.03
68329;BME280;55182;56.864;60.554;2023-01-31T09:19:35;76010.19;;;-143.60;64.91
68329;BME280;55182;56.864;60.554;2023-01-31T09:22:01;76010.19;;;-143.60;64.29
68329;BME280;55182;56.864;60.554;2023-01-31T09:24:27;76006.19;;;-143.60;64.24
68329;BME280;55182;56.864;60.554;2023-01-31T09:26:52;76012.22;;;-143.60;65.04
68329;BME280;55182;56.864;60.554;2023-01-31T09:29:18;76012.22;;;-143.60;64.62
68329;BME280;55182;56.864;60.554;2023-01-31T09:31:43;76006.19;;;-143.60;64.27
68329;BME280;55182;56.864;60.554;2023-01-31T09:34:09;76010.19;;;-143.60;64.28
68329;BME280;55182;56.864;60.554;2023-01-31T09:36:35;76010.19;;;-143.60;64.75
68329;BME280;55182;56.864;60.554;2023-01-31T09:39:01;76014.22;;;-143.60;64.46
68329;BME280;55182;56.864;60.554;2023-01-31T09:44:03;76026.28;;;-143.60;64.46
68329;BME280;55182;56.864;60.554;2023-01-31T09:46:31;76018.25;;;-143.60;64.54
68329;BME280;55182;56.864;60.554;2023-01-31T09:48:59;76018.25;;;-143.60;64.73
68329;BME280;55182;56.864;60.554;2023-01-31T09:51:26;76018.25;;;-143.60;64.65
68329;BME280;55182;56.864;60.554;2023-01-31T09:53:52;76016.22;;;-143.60;64.66
68329;BME280;55182;56.864;60.554;2023-01-31T10:01:24;76006.19;;;-143.60;65.07
68329;BME280;55182;56.864;60.554;2023-01-31T10:03:58;76004.19;;;-143.60;64.77
68329;BME280;55182;56.864;60.554;2023-01-31T10:06:51;76010.19;;;-143.60;64.99
68329;BME280;55182;56.864;60.554;2023-01-31T10:14:52;75996.13;;;-143.60;65.52
68329;BME280;55182;56.864;60.554;2023-01-31T10:17:22;75988.09;;;-143.60;65.74
68329;BME280;55182;56.864;60.554;2023-01-31T10:22:55;75992.13;;;-143.60;66.63
68329;BME280;55182;56.864;60.554;2023-01-31T10:25:25;75994.13;;;-143.60;66.48
68329;BME280;55182;56.864;60.554;2023-01-31T10:28:01;76002.16;;;-143.60;66.70
68329;BME280;55182;56.864;60.554;2023-01-31T10:30:46;76006.19;;;-143.60;67.20
68329;BME280;55182;56.864;60.554;2023-01-31T10:33:17;76018.25;;;-143.60;67.26
68329;BME280;55182;56.864;60.554;2023-01-31T10:35:46;76030.31;;;-143.60;67.17
68329;BME280;55182;56.864;60.554;2023-01-31T10:38:31;76030.31;;;-143.60;67.12
68329;BME280;55182;56.864;60.554;2023-01-31T10:41:01;76042.34;;;-143.60;67.43
68329;BME280;55182;56.864;60.554;2023-01-31T10:43:37;76038.34;;;-143.60;68.02
68329;BME280;55182;56.864;60.554;2023-01-31T10:46:10;76040.34;;;-143.60;67.86
68329;BME280;55182;56.864;60.554;2023-01-31T10:48:35;76034.31;;;-143.60;67.83
68329;BME280;55182;56.864;60.554;2023-01-31T10:56:05;76054.41;;;-143.60;67.04
68329;BME280;55182;56.864;60.554;2023-01-31T10:58:33;76062.44;;;-143.60;67.19
68329;BME280;55182;56.864;60.554;2023-01-31T11:00:59;76076.50;;;-143.60;67.11
68329;BME280;55182;56.864;60.554;2023-01-31T11:03:24;76078.53;;;-143.60;66.67
68329;BME280;55182;56.864;60.554;2023-01-31T11:05:51;76084.56;;;-143.60;66.87
68329;BME280;55182;56.864;60.554;2023-01-31T11:10:49;76090.59;;;-143.60;67.20
68329;BME280;55182;56.864;60.554;2023-01-31T11:13:19;76110.69;;;-143.60;67.07
68329;BME280;55182;56.864;60.554;2023-01-31T11:15:44;76120.72;;;-143.60;67.31
68329;BME280;55182;56.864;60.554;2023-01-31T11:18:13;76138.81;;;-143.60;67.51
68329;BME280;55182;56.864;60.554;2023-01-31T11:20:44;76128.75;;;-143.60;67.97
68329;BME280;55182;56.864;60.554;2023-01-31T11:23:11;76134.78;;;-143.60;67.16
68329;BME280;55182;56.864;60.554;2023-01-31T11:25:38;76138.81;;;-143.60;67.15
68329;BME280;55182;56.864;60.554;2023-01-31T11:28:04;76146.84;;;-143.60;67.29
68329;BME280;55182;56.864;60.554;2023-01-31T11:30:40;76150.88;;;-143.60;67.04
68329;BME280;55182;56.864;60.554;2023-01-31T11:33:06;76156.91;;;-143.60;66.60
68329;BME280;55182;56.864;60.554;2023-01-31T11:35:32;76160.91;;;-143.60;66.74
68329;BME280;55182;56.864;60.554;2023-01-31T11:37:59;76164.94;;;-143.60;66.69
68329;BME280;55182;56.864;60.554;2023-01-31T11:40:27;76174.97;;;-143.60;66.60
68329;BME280;55182;56.864;60.554;2023-01-31T11:42:54;76162.91;;;-143.60;66.69
68329;BME280;55182;56.864;60.554;2023-01-31T11:45:21;76174.97;;;-143.60;66.70
68329;BME280;55182;56.864;60.554;2023-01-31T11:47:48;76185.03;;;-143.60;67.05
68329;BME280;55182;56.864;60.554;2023-01-31T11:50:33;76177.00;;;-143.60;67.46
68329;BME280;55182;56.864;60.554;2023-01-31T11:53:02;76189.03;;;-143.60;67.89
68329;BME280;55182;56.864;60.554;2023-01-31T11:55:35;76193.06;;;-143.60;68.25
68329;BME280;55182;56.864;60.554;2023-01-31T11:58:13;76199.09;;;-143.60;68.72
68329;BME280;55182;56.864;60.554;2023-01-31T12:00:42;76199.09;;;-143.60;68.86
68329;BME280;55182;56.864;60.554;2023-01-31T12:03:14;76197.09;;;-143.60;68.48
68329;BME280;55182;56.864;60.554;2023-01-31T12:05:44;76201.09;;;-143.60;68.91
68329;BME280;55182;56.864;60.554;2023-01-31T12:10:55;76205.13;;;-143.60;69.14
68329;BME280;55182;56.864;60.554;2023-01-31T12:13:21;76215.16;;;-143.60;69.43
68329;BME280;55182;56.864;60.554;2023-01-31T12:15:49;76223.22;;;-143.60;69.82
68329;BME280;55182;56.864;60.554;2023-01-31T12:18:17;76223.22;;;-143.60;69.96
68329;BME280;55182;56.864;60.554;2023-01-31T12:20:52;76229.25;;;-143.60;70.06
68329;BME280;55182;56.864;60.554;2023-01-31T12:23:33;76229.25;;;-143.60;70.19
68329;BME280;55182;56.864;60.554;2023-01-31T12:41:11;76251.34;;;-143.60;70.76
68329;BME280;55182;56.864;60.554;2023-01-31T12:46:17;76267.41;;;-143.60;71.87
68329;BME280;55182;56.864;60.554;2023-01-31T13:06:30;76319.66;;;-143.60;75.49
68329;BME280;55182;56.864;60.554;2023-01-31T13:09:01;76327.69;;;-143.60;75.64
68329;BME280;55182;56.864;60.554;2023-01-31T13:11:30;76315.66;;;-143.60;75.71
68329;BME280;55182;56.864;60.554;2023-01-31T13:14:00;76323.69;;;-143.60;75.34
68329;BME280;55182;56.864;60.554;2023-01-31T13:18:53;76315.66;;;-143.60;74.83
68329;BME280;55182;56.864;60.554;2023-01-31T13:21:24;76307.59;;;-143.60;74.48
68329;BME280;55182;56.864;60.554;2023-01-31T13:23:58;76305.59;;;-143.60;74.38
68329;BME280;55182;56.864;60.554;2023-01-31T13:26:31;76309.63;;;-143.60;73.98
68329;BME280;55182;56.864;60.554;2023-01-31T13:29:12;76313.63;;;-143.60;73.46
68329;BME280;55182;56.864;60.554;2023-01-31T13:31:41;76307.59;;;-143.60;72.99
68329;BME280;55182;56.864;60.554;2023-01-31T13:34:18;76303.59;;;-143.60;72.78
68329;BME280;55182;56.864;60.554;2023-01-31T13:36:48;76303.59;;;-143.60;72.44
68329;BME280;55182;56.864;60.554;2023-01-31T13:39:19;76299.56;;;-143.60;72.16
68329;BME280;55182;56.864;60.554;2023-01-31T13:41:46;76291.53;;;-143.60;72.10
68329;BME280;55182;56.864;60.554;2023-01-31T13:44:12;76291.53;;;-143.60;71.71
68329;BME280;55182;56.864;60.554;2023-01-31T13:49:09;76287.50;;;-143.60;71.37
68329;BME280;55182;56.864;60.554;2023-01-31T13:56:32;76279.47;;;-143.60;71.06
68329;BME280;55182;56.864;60.554;2023-01-31T13:58:59;76285.50;;;-143.60;71.19
68329;BME280;55182;56.864;60.554;2023-01-31T14:01:26;76279.47;;;-143.60;71.29
68329;BME280;55182;56.864;60.554;2023-01-31T14:09:38;76275.47;;;-143.60;70.95
68329;BME280;55182;56.864;60.554;2023-01-31T14:17:00;76273.44;;;-143.60;70.82
68329;BME280;55182;56.864;60.554;2023-01-31T14:19:30;76275.47;;;-143.60;70.62
68329;BME280;55182;56.864;60.554;2023-01-31T14:29:58;76269.44;;;-143.60;70.16
68329;BME280;55182;56.864;60.554;2023-01-31T14:32:38;76271.44;;;-143.60;70.12
68329;BME280;55182;56.864;60.554;2023-01-31T14:37:53;76275.47;;;-143.60;69.72
68329;BME280;55182;56.864;60.554;2023-01-31T14:40:27;76275.47;;;-143.60;70.10